METAR stanice u blizini

 

LYBE - Beograd / Surčin, Srbija
Ažurirano: 23/05/2024 14:30
Partly Cloudy
Partly Cloudy
 Pravac vetra Z
Vetar: Z 17 km/h
Temperatura: 18°C
Tačka rose: 15°C
Vlažnost: 83%
Pritisak: 1016 hPa
Oblaci: Partly Cloudy
Vidljivost: 10 km
Cloud details: Partly Cloudy 427 m
Partly Cloudy 732 m
2024/05/23 12:30 LYBE 231230Z 26009KT 230V300 9999 SCT014 SCT024 18/15 Q1016 NOSIG
LYBT - Beograd / Batajnica, Srbija
Ažurirano: 23/05/2024 14:30
Partly Cloudy
Partly Cloudy
 Pravac vetra Z
Vetar: Z 19 km/h
Temperatura: 19°C
Tačka rose: 16°C
Vlažnost: 83%
Pritisak: 1016 hPa
Oblaci: Partly Cloudy
Vidljivost: 10 km
Cloud details: Partly Cloudy 457 m
2024/05/23 12:30 LYBT 231230Z 26010KT 220V290 9999 SCT015 19/16 Q1016 NOSIG
LYVR - Vršac, Srbija
Ažurirano: 23/05/2024 14:30
Slaba kiša, Pretežno oblačno
Slaba kiša, Pretežno oblačno
 Pravac vetra JJZ
Vetar: JJZ 9 km/h
Temperatura: 18°C
Tačka rose: 17°C
Vlažnost: 94%
Pritisak: 1015 hPa
Pregled: Light Rain
Oblaci: Mostly Cloudy
Vidljivost: 10 km
Cloud details: Few Clouds 305 m
Mostly Cloudy 792 m
2024/05/23 12:30 LYVR 231230Z 20005KT 9999 -RA FEW010 BKN026 18/17 Q1015 NOSIG
 
LYKV - Lađevci, Srbija
Ažurirano: 23/05/2024 14:30
Partly Cloudy
Partly Cloudy
 Pravac vetra SSZ
Vetar: SSZ 7 km/h
Temperatura: 19°C
Tačka rose: 14°C
Vlažnost: 73%
Pritisak: 1016 hPa
Oblaci: Partly Cloudy
Vidljivost: 10 km
Cloud details: Few Clouds 823 m
Partly Cloudy 1067 m
2024/05/23 12:30 LYKV 231230Z 34004KT 290V010 9999 FEW027 SCT035 19/14 Q1016 NOSIG
LYNI - Niš, Srbija
Ažurirano: 23/05/2024 14:30
Partly Cloudy
Partly Cloudy
 Pravac vetra SSZ
Vetar: SSZ 24 km/h
Temperatura: 20°C
Tačka rose: 13°C
Vlažnost: 64%
Pritisak: 1016 hPa
Oblaci: Partly Cloudy
Vidljivost: 10 km
Cloud details: Few Clouds 1006 m
Partly Cloudy 1829 m
2024/05/23 12:30 LYNI 231230Z 33013KT 9999 FEW033 SCT060 20/13 Q1016 NOSIG
BKPR - Priština, Srbija
Ažurirano: 23/05/2024 14:30
Partly Cloudy
Partly Cloudy
 Pravac vetra SSI
Vetar: SSI 6 km/h
Temperatura: 19°C
Tačka rose: 12°C
Vlažnost: 64%
Pritisak: 1016 hPa
Oblaci: Partly Cloudy
Vidljivost: 10 km
Cloud details: Few Clouds 1067 m
Partly Cloudy 1524 m
2024/05/23 12:30 BKPR 231230Z 02003KT 340V080 9999 FEW035CB SCT050 19/12 Q1016 TEMPO TS
 
LHPP - Pecs / Pogany, Hungary
Ažurirano: 23/05/2024 14:15
Thunderstorm
Thunderstorm
 Pravac vetra JJZ
Vetar: JJZ 11 km/h
Temperatura: 20°C
Tačka rose: 15°C
Vlažnost: 73%
Pritisak: 1015 hPa
Oblaci: Thunderstorm
Vidljivost: 10 km
Cloud details: Oblačno 3018 m
2024/05/23 12:15 LHPP 231215Z AUTO 21006KT 170V260 9999 OVC099 //////TCU 20/15 Q1015 RERA
LHUD - Szeged, Hungary
Ažurirano: 04/07/2019 01:45
NOT Current
Vedro
Vedro
 Pravac vetra S
Vetar: S 7 km/h
Temperatura: 18°C
Tačka rose: 13°C
Vlažnost: 73%
Pritisak: 1019 hPa
Pregled: Vedro
Vidljivost: greater than 10 km
2019/07/03 23:45 LHUD 032345Z 35004KT CAVOK 18/13 Q1019
LRTR - Timisoara, Romania
Ažurirano: 23/05/2024 14:30
Few Clouds
Few Clouds
 Pravac vetra varies
Vetar: varies 7 km/h
Temperatura: 20°C
Tačka rose: 14°C
Vlažnost: 69%
Pritisak: 1014 hPa
Oblaci: Few Clouds
Vidljivost: 10 km
Cloud details: Few Clouds 914 m
Few Clouds 1372 m
2024/05/23 12:30 LRTR 231230Z VRB04KT 9999 FEW030 FEW045CB 20/14 Q1014 TEMPO TSRA
 
LRCV - Craiova, Romania
Ažurirano: 23/05/2024 14:30
Vedro
Vedro
 Pravac vetra S
Vetar: S 17 km/h
Temperatura: 19°C
Tačka rose: 12°C
Vlažnost: 64%
Pritisak: 1014 hPa
Pregled: Vedro
Vidljivost: greater than 10 km
2024/05/23 12:30 LRCV 231230Z 01009KT CAVOK 19/12 Q1014
LBSF - Sofia, Bulgaria
Ažurirano: 23/05/2024 14:30
Mostly Cloudy
Mostly Cloudy
 Pravac vetra SSZ
Vetar: SSZ 11 km/h
Temperatura: 19°C
Tačka rose: 11°C
Vlažnost: 60%
Pritisak: 1015 hPa
Oblaci: Mostly Cloudy
Vidljivost: 10 km
Cloud details: Partly Cloudy 1372 m
Partly Cloudy 1676 m
Mostly Cloudy 2134 m
2024/05/23 12:30 LBSF 231230Z 33006KT 290V010 9999 SCT045 SCT055 BKN070 19/11 Q1015 NOSIG
LWSK - Skoplje, Makedonija
Ažurirano: 23/05/2024 14:20
Partly Cloudy
Partly Cloudy
 Pravac vetra varies
Vetar: varies 4 km/h
Temperatura: 27°C
Heat Index: 27°C
Tačka rose: 14°C
Vlažnost: 45%
Pritisak: 1013 hPa
Oblaci: Partly Cloudy
Vidljivost: 10 km
Cloud details: Partly Cloudy 1524 m
2024/05/23 12:20 LWSK 231220Z VRB02KT 9999 SCT050 27/14 Q1013 NOSIG
 
LYPG - Podgorica, Crna Gora
Ažurirano: 23/05/2024 14:30
Partly Cloudy
Partly Cloudy
 Pravac vetra J
Vetar: J 15 km/h
Temperatura: 24°C
Tačka rose: 15°C
Vlažnost: 57%
Pritisak: 1015 hPa
Oblaci: Partly Cloudy
Vidljivost: 10 km
Cloud details: Few Clouds 1006 m
Partly Cloudy 1829 m
2024/05/23 12:30 LYPG 231230Z 18008KT 150V210 9999 FEW033TCU SCT060 24/15 Q1015 NOSIG
LQSA - Sarajevo, Bosna i Hercegovina
Ažurirano: 23/05/2024 14:30
Partly Cloudy
Partly Cloudy
 Pravac vetra ZSZ
Vetar: ZSZ 13 km/h
Temperatura: 21°C
Tačka rose: 8°C
Vlažnost: 43%
Pritisak: 1017 hPa
Oblaci: Partly Cloudy
Vidljivost: 10 km
Cloud details: Partly Cloudy 1676 m
2024/05/23 12:30 LQSA 231230Z 30007KT 210V350 9999 SCT055 21/08 Q1017 NOSIG
LDOS - Osijek, Hrvatksa
Ažurirano: 23/05/2024 14:30
Nearby thunderstorm, Nearby showers, Delimično oblačno
Nearby thunderstorm, Nearby showers, Delimično oblačno
 Pravac vetra JZ
Vetar: JZ 17 km/h
Temperatura: 22°C
Tačka rose: 16°C
Vlažnost: 69%
Pritisak: 1015 hPa
Pregled: Nearby thunderstorm, Nearby showers
Oblaci: Partly Cloudy
Vidljivost: 10 km
Cloud details: Few Clouds 914 m
Partly Cloudy 1128 m
2024/05/23 12:30 LDOS 231230Z 23009KT 9999 VCTS VCSH FEW030CB SCT037 22/16 Q1015